createdAt,value
2023-02-24T00:02:15.201Z,12.97
2023-02-24T00:04:45.556Z,11.37
2023-02-24T00:07:13.997Z,11.63
2023-02-24T00:09:44.621Z,12.60
2023-02-24T00:12:15.872Z,11.03
2023-02-24T00:14:46.417Z,11.50
2023-02-24T00:17:15.652Z,11.43
2023-02-24T00:19:46.546Z,11.77
2023-02-24T00:22:15.181Z,12.00
2023-02-24T00:24:43.508Z,12.47
2023-02-24T00:27:12.441Z,12.13
2023-02-24T00:29:42.272Z,11.10
2023-02-24T00:32:13.480Z,11.50
2023-02-24T00:34:44.286Z,11.90
2023-02-24T00:37:12.715Z,12.50
2023-02-24T00:39:41.948Z,12.30
2023-02-24T00:42:12.289Z,11.97
2023-02-24T00:44:43.096Z,11.80
2023-02-24T00:47:12.738Z,11.80
2023-02-24T00:49:44.403Z,12.30
2023-02-24T00:52:14.640Z,12.07
2023-02-24T00:54:43.199Z,12.17
2023-02-24T00:57:12.048Z,12.13
2023-02-24T00:59:42.532Z,12.10
2023-02-24T01:02:13.564Z,12.63
2023-02-24T01:04:44.531Z,11.23
2023-02-24T01:07:16.343Z,12.30
2023-02-24T01:09:45.151Z,12.03
2023-02-24T01:12:32.144Z,11.70
2023-02-24T01:15:03.088Z,11.97
2023-02-24T01:17:32.220Z,11.50
2023-02-24T01:20:15.890Z,11.83
2023-02-24T01:22:53.570Z,11.70
2023-02-24T01:25:22.481Z,11.73
2023-02-24T01:27:50.929Z,11.70
2023-02-24T01:30:19.373Z,12.07
2023-02-24T01:32:48.571Z,11.77
2023-02-24T01:35:18.021Z,12.00
2023-02-24T01:37:48.404Z,11.80
2023-02-24T01:40:21.854Z,11.50
2023-02-24T01:42:52.212Z,11.63
2023-02-24T01:45:28.835Z,11.37
2023-02-24T01:48:02.408Z,12.10
2023-02-24T01:50:33.066Z,11.67
2023-02-24T01:53:06.500Z,11.90
2023-02-24T01:55:38.716Z,10.90
2023-02-24T01:58:14.040Z,11.70
2023-02-24T02:00:47.061Z,11.47
2023-02-24T02:03:25.167Z,11.27
2023-02-24T02:06:42.888Z,11.20
2023-02-24T02:09:16.294Z,11.80
2023-02-24T02:11:49.146Z,12.00
2023-02-24T02:14:18.070Z,11.67
2023-02-24T02:17:09.329Z,11.50
2023-02-24T02:20:36.884Z,11.20
2023-02-24T02:23:57.870Z,11.73
2023-02-24T02:27:31.741Z,11.33
2023-02-24T02:30:50.134Z,10.90
2023-02-24T02:34:08.548Z,10.87
2023-02-24T02:36:49.694Z,10.67
2023-02-24T02:39:32.372Z,11.23
2023-02-24T02:42:14.308Z,11.03
2023-02-24T02:44:56.126Z,12.20
2023-02-24T02:47:29.441Z,11.20
2023-02-24T02:50:08.170Z,11.30
2023-02-24T02:52:42.337Z,10.87
2023-02-24T02:55:15.816Z,11.73
2023-02-24T02:57:48.451Z,11.73
2023-02-24T03:00:21.567Z,11.73
2023-02-24T03:02:56.014Z,12.07
2023-02-24T03:05:32.985Z,11.47
2023-02-24T03:08:06.146Z,10.60
2023-02-24T03:10:34.942Z,11.43
2023-02-24T03:13:07.421Z,11.07
2023-02-24T03:15:42.112Z,11.20
2023-02-24T03:18:18.500Z,11.00
2023-02-24T03:20:52.925Z,11.00
2023-02-24T03:23:26.150Z,11.40
2023-02-24T03:25:59.719Z,11.20
2023-02-24T03:28:37.381Z,11.20
2023-02-24T03:31:11.947Z,12.40
2023-02-24T03:33:47.854Z,11.50
2023-02-24T03:36:17.840Z,11.70
2023-02-24T03:38:49.706Z,11.67
2023-02-24T03:41:19.789Z,11.00
2023-02-24T03:43:51.110Z,11.60
2023-02-24T03:46:19.943Z,11.27
2023-02-24T03:48:56.574Z,11.30
2023-02-24T03:51:26.574Z,11.10
2023-02-24T03:54:09.056Z,11.73
2023-02-24T03:56:48.530Z,11.50
2023-02-24T03:59:33.060Z,11.00
2023-02-24T04:02:07.703Z,12.00
2023-02-24T04:04:49.831Z,10.93
2023-02-24T04:07:41.429Z,11.07
2023-02-24T04:10:15.748Z,11.57
2023-02-24T04:12:53.855Z,10.73
2023-02-24T04:15:29.632Z,10.83
2023-02-24T04:18:02.219Z,11.07
2023-02-24T04:20:39.936Z,11.03
2023-02-24T04:23:16.638Z,10.90
2023-02-24T04:25:50.520Z,10.70
2023-02-24T04:28:21.265Z,10.30
2023-02-24T04:30:56.092Z,10.90
2023-02-24T04:33:24.824Z,11.43
2023-02-24T04:35:54.817Z,11.40
2023-02-24T04:38:25.219Z,10.80
2023-02-24T04:40:54.415Z,10.93
2023-02-24T04:43:22.991Z,11.30
2023-02-24T04:45:52.581Z,11.17
2023-02-24T04:48:20.863Z,11.10
2023-02-24T04:50:55.122Z,11.03
2023-02-24T04:53:27.292Z,11.20
2023-02-24T04:55:56.340Z,11.20
2023-02-24T04:58:28.144Z,10.93
2023-02-24T05:00:57.370Z,11.00
2023-02-24T05:03:28.356Z,11.60
2023-02-24T05:06:00.240Z,11.37
2023-02-24T05:08:31.882Z,10.83
2023-02-24T05:11:03.947Z,11.43
2023-02-24T05:13:33.997Z,11.23
2023-02-24T05:16:08.264Z,11.10
2023-02-24T05:18:37.998Z,11.30
2023-02-24T05:21:27.434Z,11.40
2023-02-24T05:23:59.383Z,10.63
2023-02-24T05:26:32.120Z,11.20
2023-02-24T05:29:01.994Z,11.43
2023-02-24T05:31:31.946Z,10.90
2023-02-24T05:34:03.457Z,10.73
2023-02-24T05:36:36.455Z,11.10
2023-02-24T05:39:07.879Z,11.13
2023-02-24T05:41:41.865Z,10.87
2023-02-24T05:44:14.222Z,11.43
2023-02-24T05:46:44.930Z,11.10
2023-02-24T05:49:16.349Z,11.20
2023-02-24T05:51:54.690Z,11.30
2023-02-24T05:54:29.453Z,10.50
2023-02-24T05:57:01.244Z,11.40
2023-02-24T05:59:33.002Z,11.63
2023-02-24T06:02:07.442Z,11.10
2023-02-24T06:04:40.646Z,10.93
2023-02-24T06:07:14.626Z,10.60
2023-02-24T06:09:44.986Z,11.10
2023-02-24T06:12:15.057Z,11.20
2023-02-24T06:14:45.007Z,11.23
2023-02-24T06:17:15.174Z,11.23
2023-02-24T06:19:43.944Z,11.47
2023-02-24T06:22:15.539Z,11.07
2023-02-24T06:24:45.315Z,10.90
2023-02-24T06:27:17.916Z,11.50
2023-02-24T06:29:49.933Z,11.97
2023-02-24T06:32:18.793Z,12.30
2023-02-24T06:34:47.494Z,11.90
2023-02-24T06:37:18.343Z,11.33
2023-02-24T06:39:48.094Z,11.20
2023-02-24T06:42:17.003Z,11.50
2023-02-24T06:44:45.500Z,11.73
2023-02-24T06:47:17.965Z,11.60
2023-02-24T06:49:47.961Z,11.77
2023-02-24T06:52:19.180Z,11.17
2023-02-24T06:54:52.428Z,12.13
2023-02-24T06:57:20.908Z,11.00
2023-02-24T06:59:50.923Z,10.80
2023-02-24T07:02:19.347Z,11.40
2023-02-24T07:04:48.158Z,10.50
2023-02-24T07:07:17.488Z,10.80
2023-02-24T07:09:45.996Z,11.30
2023-02-24T07:12:21.121Z,11.13
2023-02-24T07:14:50.864Z,10.90
2023-02-24T07:17:20.051Z,10.83
2023-02-24T07:19:48.415Z,11.53
2023-02-24T07:22:17.613Z,10.67
2023-02-24T07:24:46.751Z,10.70
2023-02-24T07:27:23.263Z,11.10
2023-02-24T07:29:53.593Z,10.83
2023-02-24T07:32:23.442Z,11.37
2023-02-24T07:34:52.010Z,11.00
2023-02-24T07:37:20.752Z,10.57
2023-02-24T07:39:49.162Z,11.10
2023-02-24T07:42:18.952Z,10.90
2023-02-24T07:44:49.202Z,10.50
2023-02-24T07:47:17.902Z,11.10
2023-02-24T07:49:46.528Z,10.83
2023-02-24T07:52:16.196Z,10.97
2023-02-24T07:54:44.722Z,10.80
2023-02-24T07:57:14.685Z,10.90
2023-02-24T07:59:46.883Z,10.50
2023-02-24T08:02:15.809Z,10.53
2023-02-24T08:04:50.260Z,10.77
2023-02-24T08:07:24.994Z,11.03
2023-02-24T08:10:24.262Z,10.30
2023-02-24T08:12:55.589Z,10.40
2023-02-24T08:15:34.146Z,10.07
2023-02-24T08:18:03.223Z,11.03
2023-02-24T08:20:36.401Z,10.10
2023-02-24T08:23:08.596Z,10.40
2023-02-24T08:25:37.074Z,10.50
2023-02-24T08:28:11.468Z,10.20
2023-02-24T08:30:46.470Z,10.53
2023-02-24T08:33:20.880Z,10.53
2023-02-24T08:36:01.079Z,10.53
2023-02-24T08:38:39.983Z,10.80
2023-02-24T08:41:17.853Z,10.30
2023-02-24T08:43:47.632Z,10.50
2023-02-24T08:46:26.137Z,10.20
2023-02-24T08:48:58.049Z,11.00
2023-02-24T08:51:30.909Z,10.33
2023-02-24T08:54:02.619Z,11.10
2023-02-24T08:56:34.941Z,10.30
2023-02-24T08:59:06.931Z,10.30
2023-02-24T09:01:39.269Z,10.37
2023-02-24T09:04:10.551Z,10.57
2023-02-24T09:06:44.203Z,10.43
2023-02-24T09:09:21.277Z,10.73
2023-02-24T09:11:56.587Z,10.50
2023-02-24T09:14:29.069Z,10.40
2023-02-24T09:17:03.281Z,10.17
2023-02-24T09:19:56.793Z,10.50
2023-02-24T09:22:40.946Z,10.57
2023-02-24T09:25:21.296Z,10.50
2023-02-24T09:27:55.967Z,10.00
2023-02-24T09:30:38.105Z,10.40
2023-02-24T09:33:21.255Z,9.97
2023-02-24T09:36:03.383Z,10.37
2023-02-24T09:39:08.157Z,11.00
2023-02-24T09:41:56.873Z,10.10
2023-02-24T09:44:34.619Z,10.67
2023-02-24T09:47:14.079Z,10.43
2023-02-24T09:49:50.296Z,10.30
2023-02-24T09:52:20.774Z,10.00
2023-02-24T09:55:16.597Z,10.17
2023-02-24T09:58:27.015Z,10.30
2023-02-24T10:01:21.130Z,10.70
2023-02-24T10:04:14.907Z,10.10
2023-02-24T10:06:52.235Z,10.77
2023-02-24T10:09:26.963Z,10.77
2023-02-24T10:12:04.530Z,10.53
2023-02-24T10:14:44.666Z,10.90
2023-02-24T10:17:24.606Z,10.17
2023-02-24T10:20:00.267Z,10.40
2023-02-24T10:22:50.610Z,10.67
2023-02-24T10:25:41.645Z,10.23
2023-02-24T10:28:24.157Z,10.40
2023-02-24T10:31:10.421Z,10.70
2023-02-24T10:33:45.224Z,10.80
2023-02-24T10:36:17.347Z,10.60
2023-02-24T10:38:50.602Z,11.10
2023-02-24T10:41:19.614Z,10.40
2023-02-24T10:43:56.479Z,11.07
2023-02-24T10:46:41.162Z,11.80
2023-02-24T10:49:16.683Z,10.73
2023-02-24T10:51:53.529Z,11.50
2023-02-24T10:54:45.015Z,11.47
2023-02-24T10:57:23.196Z,11.77
2023-02-24T11:00:15.613Z,11.50
2023-02-24T11:03:10.611Z,11.60
2023-02-24T11:06:05.546Z,11.43
2023-02-24T11:08:54.669Z,11.50
2023-02-24T11:11:29.993Z,11.10
2023-02-24T11:14:19.186Z,11.60
2023-02-24T11:17:08.313Z,12.77
2023-02-24T11:19:44.963Z,12.57
2023-02-24T11:22:16.851Z,11.60
2023-02-24T11:24:46.779Z,11.23
2023-02-24T11:27:20.124Z,11.70
2023-02-24T11:30:14.979Z,10.90
2023-02-24T11:33:06.601Z,11.57
2023-02-24T11:35:41.912Z,11.20
2023-02-24T11:38:27.838Z,10.80
2023-02-24T11:41:06.439Z,11.27
2023-02-24T11:43:41.687Z,11.43
2023-02-24T11:46:17.079Z,11.00
2023-02-24T11:48:52.308Z,10.67
2023-02-24T11:51:25.860Z,10.67
2023-02-24T11:53:58.013Z,11.13
2023-02-24T11:56:31.976Z,10.63
2023-02-24T11:59:07.489Z,10.60
2023-02-24T12:01:42.409Z,10.70
2023-02-24T12:04:21.901Z,10.53
2023-02-24T12:06:57.976Z,10.67
2023-02-24T12:09:33.359Z,10.20
2023-02-24T12:12:07.227Z,10.13
2023-02-24T12:14:43.441Z,10.70
2023-02-24T12:17:21.926Z,10.47
2023-02-24T12:19:59.954Z,10.40
2023-02-24T12:22:39.985Z,9.97
2023-02-24T12:25:15.051Z,10.53
2023-02-24T12:27:58.861Z,10.40
2023-02-24T12:30:49.625Z,10.13
2023-02-24T12:33:37.554Z,10.13
2023-02-24T12:36:21.442Z,9.87
2023-02-24T12:39:00.876Z,10.33
2023-02-24T12:41:43.623Z,10.37
2023-02-24T12:44:31.294Z,10.23
2023-02-24T12:47:09.904Z,11.03
2023-02-24T12:50:16.717Z,11.90
2023-02-24T12:52:57.855Z,11.73
2023-02-24T12:55:32.595Z,11.60
2023-02-24T12:58:10.885Z,11.40
2023-02-24T13:00:53.874Z,11.27
2023-02-24T13:03:39.968Z,11.17
2023-02-24T13:06:17.551Z,10.70
2023-02-24T13:08:56.676Z,11.43
2023-02-24T13:11:38.942Z,12.00
2023-02-24T13:14:20.675Z,11.50
2023-02-24T13:16:49.182Z,11.17
2023-02-24T13:19:30.049Z,11.43
2023-02-24T13:22:06.638Z,11.80
2023-02-24T13:24:37.137Z,11.73
2023-02-24T13:27:22.850Z,10.97
2023-02-24T13:29:54.012Z,11.03
2023-02-24T13:32:32.708Z,11.10
2023-02-24T13:35:06.534Z,11.50
2023-02-24T13:37:38.746Z,11.50
2023-02-24T13:40:24.292Z,10.80
2023-02-24T13:43:04.795Z,11.60
2023-02-24T13:45:35.418Z,11.83
2023-02-24T13:48:48.732Z,11.70
2023-02-24T13:51:50.581Z,12.00
2023-02-24T13:54:45.633Z,11.60
2023-02-24T13:57:43.005Z,12.20
2023-02-24T14:00:26.728Z,11.43
2023-02-24T14:02:55.813Z,11.97
2023-02-24T14:05:29.529Z,14.20
2023-02-24T14:08:00.244Z,12.27
2023-02-24T14:10:33.261Z,11.60
2023-02-24T14:13:07.795Z,12.07
2023-02-24T14:15:36.711Z,11.80
2023-02-24T14:18:07.262Z,11.60
2023-02-24T14:20:38.018Z,11.50
2023-02-24T14:23:23.841Z,11.67
2023-02-24T14:25:57.659Z,12.57
2023-02-24T14:28:30.661Z,11.90
2023-02-24T14:31:08.172Z,12.07
2023-02-24T14:33:39.900Z,11.63
2023-02-24T14:36:18.005Z,12.43
2023-02-24T14:38:47.869Z,11.40
2023-02-24T14:41:23.531Z,12.10
2023-02-24T14:43:52.403Z,11.30
2023-02-24T14:46:21.837Z,12.10
2023-02-24T14:48:55.364Z,12.00
2023-02-24T14:51:27.743Z,12.97
2023-02-24T14:54:01.643Z,12.77
2023-02-24T14:56:34.090Z,12.10
2023-02-24T14:59:07.962Z,11.80
2023-02-24T15:01:40.513Z,12.73
2023-02-24T15:04:15.589Z,12.00
2023-02-24T15:06:45.776Z,12.10
2023-02-24T15:09:21.098Z,12.13
2023-02-24T15:11:53.244Z,11.80
2023-02-24T15:14:24.678Z,12.97
2023-02-24T15:16:56.220Z,11.40
2023-02-24T15:19:31.499Z,11.53
2023-02-24T15:22:00.695Z,11.77
2023-02-24T15:24:34.016Z,11.60
2023-02-24T15:27:17.369Z,11.63
2023-02-24T15:29:57.305Z,11.13
2023-02-24T15:32:30.101Z,11.80
2023-02-24T15:34:58.744Z,10.90
2023-02-24T15:37:30.152Z,10.93
2023-02-24T15:40:12.895Z,11.23
2023-02-24T15:42:41.276Z,12.00
2023-02-24T15:45:30.095Z,11.70
2023-02-24T15:48:01.072Z,13.13
2023-02-24T15:50:31.528Z,14.57
2023-02-24T15:53:05.062Z,14.70
2023-02-24T15:55:34.737Z,13.90
2023-02-24T15:58:04.593Z,12.47
2023-02-24T16:00:33.052Z,12.57
2023-02-24T16:03:01.398Z,13.13
2023-02-24T16:05:29.841Z,12.43
2023-02-24T16:07:58.181Z,11.97
2023-02-24T16:10:29.886Z,11.30
2023-02-24T16:13:02.044Z,12.13
2023-02-24T16:15:35.621Z,10.90
2023-02-24T16:18:04.090Z,12.40
2023-02-24T16:20:34.040Z,11.80
2023-02-24T16:23:05.449Z,11.50
2023-02-24T16:25:39.354Z,11.40
2023-02-24T16:28:12.765Z,11.37
2023-02-24T16:30:41.740Z,11.37
2023-02-24T16:33:14.841Z,11.80
2023-02-24T16:35:44.777Z,12.07
2023-02-24T16:38:15.360Z,11.63
2023-02-24T16:40:46.923Z,12.40
2023-02-24T16:43:17.122Z,11.60
2023-02-24T16:45:47.026Z,12.80
2023-02-24T16:48:21.697Z,12.93
2023-02-24T16:50:50.919Z,17.20
2023-02-24T16:53:22.677Z,12.37
2023-02-24T16:55:51.459Z,12.07
2023-02-24T16:58:22.894Z,12.03
2023-02-24T17:00:56.316Z,12.30
2023-02-24T17:03:27.479Z,13.70
2023-02-24T17:05:57.767Z,12.73
2023-02-24T17:08:26.388Z,11.97
2023-02-24T17:10:54.896Z,11.80
2023-02-24T17:13:24.655Z,12.23
2023-02-24T17:15:55.467Z,11.80
2023-02-24T17:18:24.181Z,12.73
2023-02-24T17:20:52.912Z,11.93
2023-02-24T17:23:21.569Z,12.07
2023-02-24T17:25:54.917Z,12.17
2023-02-24T17:28:24.665Z,12.43
2023-02-24T17:30:53.166Z,13.40
2023-02-24T17:33:22.471Z,12.93
2023-02-24T17:35:50.828Z,13.47
2023-02-24T17:38:21.649Z,13.60
2023-02-24T17:40:50.011Z,12.73
2023-02-24T17:43:18.376Z,12.00
2023-02-24T17:45:48.694Z,11.90
2023-02-24T17:48:17.496Z,11.83
2023-02-24T17:50:48.723Z,12.00
2023-02-24T17:53:17.247Z,12.80
2023-02-24T17:56:01.397Z,12.57
2023-02-24T17:58:30.970Z,11.93
2023-02-24T18:01:02.066Z,12.93
2023-02-24T18:03:32.033Z,11.77
2023-02-24T18:06:01.270Z,11.90
2023-02-24T18:08:30.569Z,11.27
2023-02-24T18:10:59.939Z,11.60
2023-02-24T18:13:29.177Z,11.37
2023-02-24T18:15:57.685Z,13.63
2023-02-24T18:18:30.294Z,11.63
2023-02-24T18:21:02.885Z,11.30
2023-02-24T18:23:31.562Z,11.20
2023-02-24T18:26:03.736Z,11.40
2023-02-24T18:28:33.050Z,11.47
2023-02-24T18:31:03.391Z,11.90
2023-02-24T18:33:33.302Z,10.70
2023-02-24T18:36:03.115Z,11.40
2023-02-24T18:38:31.541Z,11.93
2023-02-24T18:41:02.032Z,11.40
2023-02-24T18:43:31.425Z,11.50
2023-02-24T18:46:01.157Z,10.90
2023-02-24T18:48:32.222Z,11.83
2023-02-24T18:51:01.516Z,11.30
2023-02-24T18:53:34.251Z,11.00
2023-02-24T18:56:03.344Z,11.27
2023-02-24T18:58:31.994Z,11.57
2023-02-24T19:01:00.918Z,11.30
2023-02-24T19:03:29.355Z,11.33
2023-02-24T19:05:59.002Z,12.07
2023-02-24T19:08:27.371Z,12.20
2023-02-24T19:10:55.771Z,11.50
2023-02-24T19:13:25.149Z,12.00
2023-02-24T19:15:53.517Z,10.87
2023-02-24T19:18:21.970Z,11.77
2023-02-24T19:20:50.251Z,11.60
2023-02-24T19:23:19.898Z,11.07
2023-02-24T19:25:48.306Z,11.27
2023-02-24T19:28:16.680Z,11.30
2023-02-24T19:30:45.497Z,11.20
2023-02-24T19:33:14.032Z,11.50
2023-02-24T19:35:43.575Z,10.87
2023-02-24T19:38:16.167Z,10.93
2023-02-24T19:40:46.518Z,11.63
2023-02-24T19:43:14.897Z,10.90
2023-02-24T19:45:43.922Z,11.53
2023-02-24T19:48:12.383Z,11.23
2023-02-24T19:50:41.711Z,11.27
2023-02-24T19:53:10.248Z,10.67
2023-02-24T19:55:38.723Z,10.47
2023-02-24T19:58:08.430Z,10.50
2023-02-24T20:00:36.719Z,11.13
2023-02-24T20:03:05.269Z,11.20
2023-02-24T20:05:36.339Z,11.53
2023-02-24T20:08:04.825Z,11.43
2023-02-24T20:10:33.253Z,12.13
2023-02-24T20:13:01.612Z,11.83
2023-02-24T20:15:32.389Z,12.50
2023-02-24T20:18:03.304Z,11.77
2023-02-24T20:20:31.787Z,12.20
2023-02-24T20:23:00.133Z,12.60
2023-02-24T20:25:29.066Z,12.03
2023-02-24T20:27:57.450Z,12.50
2023-02-24T20:30:25.786Z,11.93
2023-02-24T20:32:55.539Z,12.30
2023-02-24T20:35:26.258Z,11.90
2023-02-24T20:37:54.639Z,12.60
2023-02-24T20:40:22.940Z,12.20
2023-02-24T20:42:51.330Z,12.20
2023-02-24T20:45:19.682Z,12.23
2023-02-24T20:47:47.979Z,13.37
2023-02-24T20:50:18.044Z,13.67
2023-02-24T20:52:46.509Z,13.10
2023-02-24T20:55:14.932Z,12.67
2023-02-24T20:57:43.388Z,13.03
2023-02-24T21:00:15.519Z,12.67
2023-02-24T21:02:44.293Z,12.97
2023-02-24T21:05:21.420Z,12.00
2023-02-24T21:07:50.819Z,12.07
2023-02-24T21:10:22.472Z,11.57
2023-02-24T21:12:52.655Z,12.40
2023-02-24T21:15:21.780Z,13.10
2023-02-24T21:17:50.068Z,12.17
2023-02-24T21:20:20.293Z,12.97
2023-02-24T21:22:48.603Z,12.60
2023-02-24T21:25:16.970Z,11.63
2023-02-24T21:27:45.429Z,11.63
2023-02-24T21:30:14.333Z,13.07
2023-02-24T21:32:43.004Z,12.73
2023-02-24T21:35:11.517Z,12.23
2023-02-24T21:37:41.240Z,11.87
2023-02-24T21:40:12.221Z,12.80
2023-02-24T21:42:43.903Z,13.00
2023-02-24T21:45:13.990Z,11.70
2023-02-24T21:47:42.813Z,11.60
2023-02-24T21:50:16.049Z,13.20
2023-02-24T21:52:47.019Z,12.60
2023-02-24T21:55:17.279Z,13.20
2023-02-24T21:57:48.020Z,12.57
2023-02-24T22:00:20.949Z,12.10
2023-02-24T22:02:51.470Z,13.07
2023-02-24T22:05:20.560Z,13.20
2023-02-24T22:07:52.224Z,13.60
2023-02-24T22:10:24.846Z,13.57
2023-02-24T22:12:58.295Z,13.10
2023-02-24T22:15:27.762Z,12.83
2023-02-24T22:17:57.181Z,12.90
2023-02-24T22:20:46.315Z,13.03
2023-02-24T22:23:17.368Z,13.50
2023-02-24T22:25:47.204Z,12.00
2023-02-24T22:28:15.924Z,13.10
2023-02-24T22:31:06.405Z,12.43
2023-02-24T22:33:40.968Z,15.23
2023-02-24T22:36:14.162Z,11.97
2023-02-24T22:41:57.209Z,11.87
2023-02-24T22:44:32.704Z,13.37
2023-02-24T22:49:49.640Z,12.40
2023-02-24T22:55:38.033Z,12.33
2023-02-24T23:01:33.539Z,11.83
2023-02-24T23:04:05.544Z,11.70
2023-02-24T23:06:34.901Z,11.47
2023-02-24T23:09:05.581Z,11.63
2023-02-24T23:11:37.876Z,12.03
2023-02-24T23:14:10.721Z,12.17
2023-02-24T23:16:42.454Z,11.30
2023-02-24T23:19:17.465Z,11.60
2023-02-24T23:21:48.469Z,11.80
2023-02-24T23:24:18.670Z,11.57
2023-02-24T23:26:51.442Z,10.97
2023-02-24T23:29:24.054Z,11.43
2023-02-24T23:31:54.687Z,11.33
2023-02-24T23:34:23.221Z,11.30
2023-02-24T23:36:51.778Z,11.73
2023-02-24T23:39:23.983Z,10.97
2023-02-24T23:41:56.959Z,11.30
2023-02-24T23:44:26.111Z,11.40
2023-02-24T23:46:58.195Z,11.80
2023-02-24T23:49:36.097Z,11.70
2023-02-24T23:52:12.445Z,11.93
2023-02-24T23:54:40.820Z,11.03
2023-02-24T23:57:09.131Z,11.77
2023-02-24T23:59:39.404Z,11.77
